createdAt,value
2018-05-15T00:01:11.777Z,11.90
2018-05-15T00:03:45.298Z,11.70
2018-05-15T00:06:18.871Z,11.80
2018-05-15T00:08:52.447Z,11.70
2018-05-15T00:11:26.794Z,12.10
2018-05-15T00:14:00.454Z,12.10
2018-05-15T00:16:33.971Z,12.10
2018-05-15T00:19:07.576Z,12.10
2018-05-15T00:21:41.110Z,12.10
2018-05-15T00:24:14.673Z,11.70
2018-05-15T00:26:48.266Z,11.90
2018-05-15T00:29:21.784Z,12.00
2018-05-15T00:31:55.391Z,11.90
2018-05-15T00:34:28.927Z,11.90
2018-05-15T00:37:03.275Z,11.90
2018-05-15T00:39:36.832Z,11.80
2018-05-15T00:42:10.382Z,12.00
2018-05-15T00:44:43.987Z,12.20
2018-05-15T00:47:17.579Z,12.10
2018-05-15T00:49:51.196Z,12.20
2018-05-15T00:52:24.789Z,12.20
2018-05-15T00:55:10.349Z,12.20
2018-05-15T00:57:44.694Z,12.00
2018-05-15T01:00:18.350Z,11.90
2018-05-15T01:02:52.048Z,11.80
2018-05-15T01:05:25.615Z,11.70
2018-05-15T01:07:59.196Z,11.70
2018-05-15T01:10:32.694Z,11.80
2018-05-15T01:13:06.290Z,11.80
2018-05-15T01:15:39.978Z,11.90
2018-05-15T01:18:13.695Z,11.70
2018-05-15T01:20:47.273Z,11.60
2018-05-15T01:23:20.824Z,11.40
2018-05-15T01:25:54.387Z,11.50
2018-05-15T01:28:28.014Z,11.60
2018-05-15T01:31:01.651Z,11.60
2018-05-15T01:33:35.231Z,11.60
2018-05-15T01:36:08.787Z,11.40
2018-05-15T01:38:42.693Z,11.30
2018-05-15T01:41:17.126Z,11.30
2018-05-15T01:43:50.800Z,11.30
2018-05-15T01:46:24.356Z,11.30
2018-05-15T01:48:57.904Z,11.10
2018-05-15T01:51:31.434Z,11.20
2018-05-15T01:54:05.864Z,11.20
2018-05-15T01:56:39.589Z,11.20
2018-05-15T01:59:13.962Z,11.30
2018-05-15T02:01:47.561Z,11.30
2018-05-15T02:04:21.103Z,11.50
2018-05-15T02:06:55.391Z,11.50
2018-05-15T02:09:29.805Z,11.50
2018-05-15T02:12:03.396Z,11.40
2018-05-15T02:14:36.950Z,11.50
2018-05-15T02:17:10.503Z,11.70
2018-05-15T02:19:44.822Z,11.90
2018-05-15T02:22:19.493Z,11.70
2018-05-15T02:24:53.031Z,11.70
2018-05-15T02:27:26.603Z,11.80
2018-05-15T02:30:00.252Z,11.70
2018-05-15T02:32:33.805Z,11.80
2018-05-15T02:35:07.339Z,11.80
2018-05-15T02:37:41.075Z,11.80
2018-05-15T02:40:14.629Z,11.80
2018-05-15T02:42:48.157Z,11.90
2018-05-15T02:45:21.753Z,11.60
2018-05-15T02:47:55.336Z,11.60
2018-05-15T02:50:28.847Z,11.60
2018-05-15T02:53:02.494Z,11.80
2018-05-15T02:55:36.222Z,11.90
2018-05-15T02:58:09.798Z,11.90
2018-05-15T03:00:43.459Z,11.70
2018-05-15T03:03:17.043Z,11.40
2018-05-15T03:05:50.597Z,11.50
2018-05-15T03:08:24.254Z,11.50
2018-05-15T03:10:58.601Z,11.40
2018-05-15T03:13:33.002Z,11.50
2018-05-15T03:16:07.332Z,11.50
2018-05-15T03:18:40.976Z,11.50
2018-05-15T03:21:15.423Z,11.50
2018-05-15T03:23:49.210Z,11.50
2018-05-15T03:26:22.853Z,11.50
2018-05-15T03:28:56.446Z,11.50
2018-05-15T03:31:30.285Z,11.40
2018-05-15T03:34:04.680Z,11.40
2018-05-15T03:36:38.394Z,11.40
2018-05-15T03:39:12.627Z,11.40
2018-05-15T03:41:46.410Z,11.50
2018-05-15T03:44:19.996Z,11.50
2018-05-15T03:46:53.689Z,11.50
2018-05-15T03:49:28.122Z,11.50
2018-05-15T03:52:01.762Z,11.50
2018-05-15T03:54:35.437Z,11.40
2018-05-15T03:57:09.144Z,11.40
2018-05-15T03:59:42.715Z,11.40
2018-05-15T04:02:28.295Z,11.40
2018-05-15T04:05:13.858Z,11.40
2018-05-15T04:07:59.345Z,11.40
2018-05-15T04:10:32.891Z,11.40
2018-05-15T04:13:06.476Z,11.40
2018-05-15T04:15:40.795Z,11.20
2018-05-15T04:18:15.109Z,11.40
2018-05-15T04:20:48.682Z,11.40
2018-05-15T04:23:22.223Z,11.30
2018-05-15T04:25:55.805Z,11.20
2018-05-15T04:28:29.405Z,11.20
2018-05-15T04:31:02.912Z,11.20
2018-05-15T04:33:36.638Z,11.10
2018-05-15T04:36:10.350Z,11.00
2018-05-15T04:38:44.198Z,11.00
2018-05-15T04:41:17.721Z,11.00
2018-05-15T04:43:51.463Z,10.90
2018-05-15T04:46:24.851Z,11.00
2018-05-15T04:48:58.414Z,11.00
2018-05-15T04:51:32.010Z,11.10
2018-05-15T04:54:05.610Z,11.10
2018-05-15T04:56:39.165Z,11.20
2018-05-15T04:59:12.818Z,11.20
2018-05-15T05:01:46.294Z,11.20
2018-05-15T05:04:19.957Z,11.10
2018-05-15T05:06:53.611Z,11.20
2018-05-15T05:09:27.193Z,11.30
2018-05-15T05:12:01.530Z,11.30
2018-05-15T05:14:36.071Z,11.40
2018-05-15T05:17:09.644Z,11.40
2018-05-15T05:19:43.249Z,11.40
2018-05-15T05:22:17.704Z,11.60
2018-05-15T05:24:51.218Z,11.60
2018-05-15T05:27:24.770Z,11.60
2018-05-15T05:29:58.367Z,11.80
2018-05-15T05:32:31.918Z,11.60
2018-05-15T05:35:05.467Z,11.70
2018-05-15T05:37:39.898Z,12.00
2018-05-15T05:40:13.687Z,11.90
2018-05-15T05:42:48.014Z,12.10
2018-05-15T05:45:21.805Z,12.10
2018-05-15T05:47:55.453Z,12.00
2018-05-15T05:50:29.051Z,12.00
2018-05-15T05:53:02.656Z,12.10
2018-05-15T05:55:36.457Z,12.20
2018-05-15T05:58:10.007Z,12.00
2018-05-15T06:00:43.554Z,12.10
2018-05-15T06:03:17.242Z,12.20
2018-05-15T06:05:50.848Z,12.00
2018-05-15T06:08:24.371Z,12.10
2018-05-15T06:10:58.037Z,12.20
2018-05-15T06:13:31.612Z,11.80
2018-05-15T06:16:05.176Z,12.00
2018-05-15T06:18:38.692Z,12.10
2018-05-15T06:21:12.236Z,12.20
2018-05-15T06:23:45.789Z,12.10
2018-05-15T06:26:19.338Z,12.10
2018-05-15T06:28:52.867Z,12.10
2018-05-15T06:31:26.529Z,12.10
2018-05-15T06:34:00.255Z,12.20
2018-05-15T06:36:33.747Z,12.20
2018-05-15T06:39:08.091Z,12.20
2018-05-15T06:41:41.744Z,12.20
2018-05-15T06:44:15.359Z,12.30
2018-05-15T06:46:48.892Z,12.30
2018-05-15T06:49:22.434Z,12.30
2018-05-15T06:51:56.045Z,12.40
2018-05-15T06:54:29.571Z,12.40
2018-05-15T06:57:03.987Z,12.50
2018-05-15T06:59:37.688Z,12.50
2018-05-15T07:02:11.203Z,12.60
2018-05-15T07:04:44.822Z,12.60
2018-05-15T07:07:18.396Z,12.70
2018-05-15T07:09:51.981Z,12.70
2018-05-15T07:12:25.570Z,12.70
2018-05-15T07:14:59.090Z,12.70
2018-05-15T07:17:32.693Z,12.70
2018-05-15T07:20:06.290Z,12.80
2018-05-15T07:22:39.994Z,12.80
2018-05-15T07:25:14.320Z,12.90
2018-05-15T07:27:48.055Z,12.90
2018-05-15T07:30:21.555Z,12.90
2018-05-15T07:32:55.107Z,13.00
2018-05-15T07:35:28.627Z,13.10
2018-05-15T07:38:02.198Z,13.20
2018-05-15T07:40:35.726Z,13.30
2018-05-15T07:43:09.324Z,13.30
2018-05-15T07:45:42.813Z,13.40
2018-05-15T07:48:16.372Z,13.40
2018-05-15T07:50:49.997Z,13.40
2018-05-15T07:53:23.560Z,13.30
2018-05-15T07:55:57.107Z,13.40
2018-05-15T07:58:30.708Z,13.40
2018-05-15T08:01:04.269Z,13.40
2018-05-15T08:03:37.835Z,13.50
2018-05-15T08:06:11.404Z,13.60
2018-05-15T08:08:44.923Z,13.70
2018-05-15T08:11:19.230Z,14.00
2018-05-15T08:13:52.953Z,13.90
2018-05-15T08:16:26.555Z,14.20
2018-05-15T08:19:00.115Z,14.40
2018-05-15T08:21:33.656Z,14.60
2018-05-15T08:24:07.215Z,14.80
2018-05-15T08:26:40.819Z,14.90
2018-05-15T08:29:15.165Z,15.00
2018-05-15T08:31:48.823Z,15.00
2018-05-15T08:34:22.472Z,15.00
2018-05-15T08:36:55.962Z,14.90
2018-05-15T08:39:29.541Z,14.90
2018-05-15T08:42:03.187Z,14.90
2018-05-15T08:44:36.702Z,15.00
2018-05-15T08:47:10.259Z,15.10
2018-05-15T08:49:43.846Z,15.30
2018-05-15T08:52:17.668Z,15.40
2018-05-15T08:54:51.127Z,15.40
2018-05-15T08:57:24.757Z,15.50
2018-05-15T08:59:58.355Z,15.50
2018-05-15T09:02:31.959Z,15.60
2018-05-15T09:05:05.599Z,15.70
2018-05-15T09:07:39.232Z,15.80
2018-05-15T09:10:12.675Z,15.50
2018-05-15T09:12:46.257Z,15.40
2018-05-15T09:15:19.849Z,15.50
2018-05-15T09:17:53.444Z,15.60
2018-05-15T09:20:27.093Z,15.70
2018-05-15T09:23:00.743Z,15.80
2018-05-15T09:25:34.439Z,15.80
2018-05-15T09:28:08.010Z,15.80
2018-05-15T09:30:41.559Z,15.70
2018-05-15T09:33:15.878Z,15.70
2018-05-15T09:35:49.596Z,15.70
2018-05-15T09:38:23.182Z,15.60
2018-05-15T09:40:56.784Z,15.40
2018-05-15T09:57:05.018Z,14.60
2018-05-15T09:59:38.583Z,14.60
2018-05-15T10:02:12.115Z,14.60
2018-05-15T10:04:45.791Z,14.70
2018-05-15T10:07:19.372Z,14.80
2018-05-15T10:09:52.876Z,14.90
2018-05-15T10:12:26.400Z,14.90
2018-05-15T10:14:59.969Z,14.80
2018-05-15T10:17:33.590Z,14.80
2018-05-15T10:20:07.283Z,14.80
2018-05-15T10:22:40.781Z,14.50
2018-05-15T10:25:14.319Z,14.30
2018-05-15T10:27:48.594Z,14.00
2018-05-15T10:30:23.422Z,14.00
2018-05-15T10:32:57.060Z,13.90
2018-05-15T10:35:30.657Z,13.90
2018-05-15T10:38:04.250Z,13.90
2018-05-15T10:40:37.953Z,13.90
2018-05-15T10:43:11.637Z,14.00
2018-05-15T10:45:45.953Z,14.20
2018-05-15T10:48:19.643Z,14.10
2018-05-15T10:50:53.129Z,14.40
2018-05-15T10:53:26.762Z,14.70
2018-05-15T10:56:00.351Z,15.10
2018-05-15T10:58:33.906Z,15.40
2018-05-15T11:01:08.285Z,15.80
2018-05-15T11:03:42.008Z,15.80
2018-05-15T11:06:15.647Z,15.90
2018-05-15T11:08:49.169Z,16.10
2018-05-15T11:11:23.290Z,16.20
2018-05-15T11:13:57.017Z,16.30
2018-05-15T11:16:30.604Z,16.20
2018-05-15T11:19:16.781Z,16.40
2018-05-15T11:22:02.274Z,16.40
2018-05-15T11:24:48.036Z,16.60
2018-05-15T11:27:21.646Z,16.70
2018-05-15T11:29:55.984Z,16.90
2018-05-15T11:32:29.500Z,16.90
2018-05-15T11:35:03.107Z,17.00
2018-05-15T11:37:36.668Z,17.10
2018-05-15T11:40:10.282Z,17.10
2018-05-15T11:42:43.878Z,17.00
2018-05-15T11:45:17.419Z,17.00
2018-05-15T11:47:51.243Z,17.10
2018-05-15T11:50:25.751Z,17.40
2018-05-15T11:52:58.741Z,17.50
2018-05-15T11:55:35.294Z,17.20
2018-05-15T11:58:06.037Z,17.10
2018-05-15T12:00:39.595Z,17.00
2018-05-15T12:03:13.301Z,16.70
2018-05-15T12:05:47.618Z,16.50
2018-05-15T12:08:22.034Z,16.40
2018-05-15T12:10:56.218Z,16.40
2018-05-15T12:13:29.886Z,16.40
2018-05-15T12:16:03.470Z,16.30
2018-05-15T12:18:37.034Z,16.20
2018-05-15T12:21:10.895Z,16.20
2018-05-15T12:23:44.266Z,16.00
2018-05-15T12:26:17.820Z,15.60
2018-05-15T12:28:51.547Z,15.50
2018-05-15T12:31:25.876Z,14.80
2018-05-15T12:33:59.676Z,14.80
2018-05-15T12:36:33.295Z,14.50
2018-05-15T12:39:06.902Z,14.50
2018-05-15T12:41:40.519Z,14.40
2018-05-15T12:44:14.182Z,14.40
2018-05-15T12:46:48.022Z,14.40
2018-05-15T12:49:22.207Z,14.40
2018-05-15T12:51:55.876Z,14.40
2018-05-15T12:54:29.474Z,14.50
2018-05-15T12:57:02.971Z,14.60
2018-05-15T12:59:36.687Z,14.50
2018-05-15T13:02:10.312Z,14.40
2018-05-15T13:04:43.933Z,14.30
2018-05-15T13:07:17.503Z,14.30
2018-05-15T13:09:51.086Z,14.40
2018-05-15T13:12:24.700Z,14.30
2018-05-15T13:14:58.296Z,14.20
2018-05-15T13:17:31.913Z,14.10
2018-05-15T13:20:05.491Z,14.10
2018-05-15T13:22:39.036Z,14.30
2018-05-15T13:25:12.608Z,14.20
2018-05-15T13:27:46.213Z,14.20
2018-05-15T13:30:20.546Z,13.60
2018-05-15T13:32:54.227Z,13.60
2018-05-15T13:35:27.926Z,13.00
2018-05-15T13:38:01.374Z,12.70
2018-05-15T13:40:34.976Z,12.60
2018-05-15T13:43:08.475Z,12.50
2018-05-15T13:45:42.034Z,12.30
2018-05-15T13:48:15.639Z,12.20
2018-05-15T13:50:49.958Z,12.10
2018-05-15T13:53:23.593Z,12.10
2018-05-15T13:55:57.900Z,12.20
2018-05-15T13:58:32.296Z,12.10
2018-05-15T14:01:05.942Z,12.10
2018-05-15T14:03:39.672Z,12.20
2018-05-15T14:06:14.024Z,12.40
2018-05-15T14:08:48.681Z,12.50
2018-05-15T14:11:22.337Z,12.40
2018-05-15T14:13:55.878Z,12.40
2018-05-15T14:16:29.431Z,12.10
2018-05-15T14:19:03.055Z,11.80
2018-05-15T14:21:36.787Z,11.50
2018-05-15T14:24:11.175Z,11.80
2018-05-15T14:26:45.477Z,11.90
2018-05-15T14:29:20.004Z,12.10
2018-05-15T14:31:54.318Z,11.70
2018-05-15T14:34:27.906Z,11.70
2018-05-15T14:37:01.457Z,11.70
2018-05-15T14:39:34.996Z,11.40
2018-05-15T14:42:20.472Z,11.60
2018-05-15T14:44:54.015Z,11.80
2018-05-15T14:47:27.595Z,11.80
2018-05-15T14:50:01.186Z,11.90
2018-05-15T14:52:34.726Z,11.60
2018-05-15T14:55:08.292Z,11.60
2018-05-15T14:57:41.899Z,11.80
2018-05-15T15:00:15.497Z,11.90
2018-05-15T15:02:49.198Z,11.50
2018-05-15T15:05:22.803Z,11.40
2018-05-15T15:07:56.397Z,11.40
2018-05-15T15:10:30.726Z,11.90
2018-05-15T15:13:05.039Z,12.30
2018-05-15T15:15:38.758Z,12.30
2018-05-15T15:18:12.314Z,12.60
2018-05-15T15:20:45.875Z,12.80
2018-05-15T15:23:20.387Z,12.90
2018-05-15T15:25:54.103Z,12.90
2018-05-15T15:28:27.716Z,12.70
2018-05-15T15:31:01.251Z,12.80
2018-05-15T15:33:34.833Z,12.50
2018-05-15T15:36:08.503Z,12.60
2018-05-15T15:38:42.100Z,13.00
2018-05-15T15:41:15.662Z,13.10
2018-05-15T15:43:49.350Z,13.30
2018-05-15T15:46:22.764Z,13.50
2018-05-15T15:48:56.267Z,13.60
2018-05-15T15:51:30.096Z,13.50
2018-05-15T15:54:04.401Z,13.80
2018-05-15T15:56:38.124Z,13.70
2018-05-15T15:59:11.671Z,14.20
2018-05-15T16:01:45.302Z,14.30
2018-05-15T16:04:18.980Z,14.40
2018-05-15T16:06:52.620Z,14.00
2018-05-15T16:09:26.206Z,14.50
2018-05-15T16:11:59.792Z,15.10
2018-05-15T16:14:33.308Z,15.60
2018-05-15T16:17:06.904Z,16.10
2018-05-15T16:19:40.504Z,16.20
2018-05-15T16:22:14.093Z,15.10
2018-05-15T16:24:47.718Z,14.90
2018-05-15T16:27:21.290Z,15.90
2018-05-15T16:29:54.800Z,16.40
2018-05-15T16:32:29.214Z,17.80
2018-05-15T16:35:02.963Z,17.80
2018-05-15T16:37:36.631Z,18.90
2018-05-15T16:40:10.837Z,17.10
2018-05-15T16:42:45.378Z,18.60
2018-05-15T16:45:19.119Z,18.50
2018-05-15T16:47:52.665Z,19.40
2018-05-15T16:50:26.396Z,19.40
2018-05-15T16:52:59.968Z,18.70
2018-05-15T16:55:33.501Z,16.60
2018-05-15T16:58:07.163Z,16.90
2018-05-15T17:00:40.798Z,17.60
2018-05-15T17:03:14.363Z,18.60
2018-05-15T17:05:47.968Z,18.20
2018-05-15T17:08:21.535Z,18.40
2018-05-15T17:10:55.109Z,18.20
2018-05-15T17:13:28.742Z,18.80
2018-05-15T17:16:02.492Z,17.60
2018-05-15T17:18:36.075Z,17.40
2018-05-15T17:21:09.673Z,17.20
2018-05-15T17:23:43.210Z,17.10
2018-05-15T17:26:16.770Z,18.20
2018-05-15T17:28:50.298Z,18.70
2018-05-15T17:31:23.943Z,18.30
2018-05-15T17:33:57.385Z,18.40
2018-05-15T17:36:31.091Z,17.80
2018-05-15T17:39:04.673Z,16.70
2018-05-15T17:41:38.352Z,16.70
2018-05-15T17:44:12.153Z,15.30
2018-05-15T17:46:45.687Z,15.30
2018-05-15T17:49:19.316Z,14.90
2018-05-15T17:51:52.865Z,14.50
2018-05-15T17:54:26.461Z,14.90
2018-05-15T17:57:00.072Z,15.10
2018-05-15T17:59:33.775Z,15.20
2018-05-15T18:02:07.369Z,15.30
2018-05-15T18:04:40.974Z,15.30
2018-05-15T18:07:14.582Z,15.30
2018-05-15T18:09:48.258Z,15.30
2018-05-15T18:12:22.687Z,15.20
2018-05-15T18:14:57.279Z,15.10
2018-05-15T18:17:30.975Z,15.10
2018-05-15T18:20:04.563Z,15.00
2018-05-15T18:22:38.074Z,14.80
2018-05-15T18:25:11.808Z,14.70
2018-05-15T18:27:45.339Z,14.60
2018-05-15T18:30:19.706Z,14.40
2018-05-15T18:32:53.434Z,14.40
2018-05-15T18:35:27.100Z,14.30
2018-05-15T18:38:00.920Z,14.20
2018-05-15T18:40:35.185Z,14.10
2018-05-15T18:43:08.918Z,14.10
2018-05-15T18:45:43.373Z,13.90
2018-05-15T18:48:16.940Z,13.80
2018-05-15T18:50:51.406Z,13.70
2018-05-15T18:53:25.806Z,13.60
2018-05-15T18:55:59.457Z,13.60
2018-05-15T18:58:33.008Z,13.30
2018-05-15T19:01:06.538Z,13.00
2018-05-15T19:03:40.928Z,12.00
2018-05-15T19:06:15.488Z,11.70
2018-05-15T19:08:49.195Z,11.60
2018-05-15T19:11:22.724Z,11.70
2018-05-15T19:13:56.382Z,11.70
2018-05-15T19:16:30.015Z,11.90
2018-05-15T19:19:04.428Z,12.00
2018-05-15T19:21:38.131Z,11.90
2018-05-15T19:24:11.734Z,11.90
2018-05-15T19:26:45.548Z,11.90
2018-05-15T19:29:19.033Z,11.90
2018-05-15T19:31:52.610Z,11.80
2018-05-15T19:34:26.236Z,11.80
2018-05-15T19:37:05.391Z,11.90
2018-05-15T19:39:44.014Z,11.90
2018-05-15T19:42:17.726Z,12.00
2018-05-15T19:44:51.524Z,12.00
2018-05-15T19:47:24.992Z,12.00
2018-05-15T19:49:58.604Z,12.00
2018-05-15T19:52:32.188Z,12.00
2018-05-15T19:55:05.768Z,12.10
2018-05-15T19:57:39.315Z,12.10
2018-05-15T20:00:13.600Z,12.10
2018-05-15T20:02:47.179Z,12.10
2018-05-15T20:05:20.726Z,12.10
2018-05-15T20:07:54.247Z,12.10
2018-05-15T20:10:28.719Z,11.80
2018-05-15T20:13:03.032Z,11.60
2018-05-15T20:15:36.603Z,11.60
2018-05-15T20:18:10.217Z,11.50
2018-05-15T20:20:43.899Z,11.50
2018-05-15T20:23:17.436Z,11.40
2018-05-15T20:25:50.916Z,11.30
2018-05-15T20:28:25.278Z,11.00
2018-05-15T20:30:59.780Z,10.50
2018-05-15T20:33:33.455Z,10.50
2018-05-15T20:36:07.064Z,9.90
2018-05-15T20:38:42.374Z,10.00
2018-05-15T20:41:15.972Z,10.30
2018-05-15T20:43:49.675Z,10.50
2018-05-15T20:46:26.213Z,10.70
2018-05-15T20:48:59.915Z,10.80
2018-05-15T20:51:33.504Z,10.80
2018-05-15T20:54:07.893Z,10.80
2018-05-15T20:56:41.498Z,10.60
2018-05-15T20:59:15.249Z,10.10
2018-05-15T21:01:48.853Z,10.00
2018-05-15T21:04:22.355Z,10.20
2018-05-15T21:06:55.923Z,10.40
2018-05-15T21:09:29.419Z,10.40
2018-05-15T21:12:02.970Z,9.90
2018-05-15T21:14:37.331Z,9.60
2018-05-15T21:17:11.007Z,9.60
2018-05-15T21:19:44.519Z,9.50
2018-05-15T21:22:18.529Z,9.30
2018-05-15T21:24:52.885Z,9.40
2018-05-15T21:27:26.424Z,9.40
2018-05-15T21:30:00.017Z,9.40
2018-05-15T21:32:33.582Z,9.20
2018-05-15T21:35:07.144Z,9.10
2018-05-15T21:37:41.641Z,9.10
2018-05-15T21:40:15.464Z,9.10
2018-05-15T21:42:49.295Z,9.30
2018-05-15T21:45:23.155Z,9.10
2018-05-15T21:47:57.625Z,9.00
2018-05-15T21:50:31.342Z,9.00
2018-05-15T21:53:05.656Z,9.00
2018-05-15T21:55:39.357Z,9.00
2018-05-15T21:58:12.945Z,9.00
2018-05-15T22:00:46.550Z,9.10
2018-05-15T22:03:20.142Z,9.20
2018-05-15T22:05:53.712Z,9.30
2018-05-15T22:08:27.384Z,9.40
2018-05-15T22:11:13.024Z,9.30
2018-05-15T22:13:58.360Z,9.40
2018-05-15T22:16:44.578Z,9.50
2018-05-15T22:19:30.777Z,9.80
2018-05-15T22:22:15.120Z,9.70
2018-05-15T22:24:49.607Z,9.90
2018-05-15T22:27:23.221Z,9.90
2018-05-15T22:29:56.806Z,9.90
2018-05-15T22:32:30.300Z,9.80
2018-05-15T22:35:03.878Z,9.80
2018-05-15T22:37:38.311Z,9.60
2018-05-15T22:40:12.038Z,9.60
2018-05-15T22:42:45.601Z,9.50
2018-05-15T22:45:19.197Z,9.50
2018-05-15T22:47:52.722Z,9.50
2018-05-15T22:50:26.275Z,9.50
2018-05-15T22:52:59.922Z,9.60
2018-05-15T22:55:33.516Z,9.90
2018-05-15T22:58:07.107Z,10.10
2018-05-15T23:00:40.618Z,10.10
2018-05-15T23:03:14.316Z,10.30
2018-05-15T23:05:47.910Z,10.40
2018-05-15T23:08:22.236Z,10.50
2018-05-15T23:10:55.767Z,10.50
2018-05-15T23:13:29.352Z,10.60
2018-05-15T23:16:02.930Z,10.60
2018-05-15T23:18:36.620Z,10.50
2018-05-15T23:21:10.170Z,10.50
2018-05-15T23:23:43.701Z,9.80
2018-05-15T23:26:17.232Z,9.50
2018-05-15T23:28:50.743Z,9.40
2018-05-15T23:31:24.475Z,9.40
2018-05-15T23:33:58.147Z,9.30
2018-05-15T23:36:31.709Z,9.30
2018-05-15T23:39:05.346Z,9.20
2018-05-15T23:41:38.886Z,9.20
2018-05-15T23:44:12.573Z,9.20
2018-05-15T23:46:46.141Z,9.10
2018-05-15T23:49:20.452Z,9.10
2018-05-15T23:51:54.155Z,9.10
2018-05-15T23:54:27.728Z,9.00
2018-05-15T23:57:01.312Z,9.10
2018-05-15T23:59:34.857Z,9.20
